Bull Shoals, Arkansas
Current Conditions -  °F | °C
As of 11:53 PM on Saturday 20 Dec 2014 (Local Time) from KBPK Reporting Station
Haze Haze  
Wind Chill: 34°   Ceiling: 3000
Heat Index: 38°   Visibility: 6mi
Dew Point: 37°   Wind: 5mph
Humidity: 97%   Direction: 160°SSE
Pressure: 30.21"   Gusts: NA
Location:  36.38°N, 92.58°W
Report Text: KBPK 210553Z AUTO 16004KT 6SM BR OVC030 03/03 A3021 RMK AO2 SLP234 T00330028 10050 20028 400610017 58001
Loading
Personal Weather Stations






























Interactive Weather Map New forecast layout! Learn more

10-Day Weather Forecast

Advertisements
Track Severe Weather on mobile